Portada
METAR-TAF:

METAR-TAF

Aeroports :

Pocono Mountains Municipal Airport

Mount Pocono, Pennsilvània, Estats Units d'Amèrica

latitud: 41-08-20N, longitud: 075-23-46W, altitud: 584 m

Observació

L'informe es va fer fa 51 minuts, a les 22:53 UTC
Vent 15 kt del Oest/Nord-Oest amb ràfegues de 29 kt
Temperatura 1°C
Humitat 59%
Pressió 1010 hPa
Visibilitat: 16.1 km
Cel ennuvolat a una alçada de 3800 ft

METAR: KMPO 222253Z AUTO 29015G29KT 10SM BKN038 01/M06 A2983 RMK AO2 PK WND 29033/2222 SLP116 T00061056 $

Hora: 18:44 (23:44 UTC)


TAF: manca

Observacions i pronòstics meteorològics de més de 4000 aeroports (METAR i TAF).

Les estacions disponibles són els punts grocs i vermells al mapa.

Posi el ratolí al punt desitjat per veure el nom de l'estació.

Feu clic per veure les observacions i els pronòstics meteorològics.

Per canviar el mapa: feu clic els botons verds amb una creu de color negre per apropar; al botó verd amb un guió per allunyar la imatge; o en les fletxes verdes per a mapes adjacents.


METAR-TAF: